sensor_id;sensor_type;location;lat;lon;timestamp;temperature;humidity
3868;DHT22;1949;48.152;11.528;2023-10-13T00:01:58;23.20;34.20
3868;DHT22;1949;48.152;11.528;2023-10-13T00:04:25;23.20;34.20
3868;DHT22;1949;48.152;11.528;2023-10-13T00:06:55;23.20;34.20
3868;DHT22;1949;48.152;11.528;2023-10-13T00:09:24;23.20;34.20
3868;DHT22;1949;48.152;11.528;2023-10-13T00:12:01;23.20;34.20
3868;DHT22;1949;48.152;11.528;2023-10-13T00:14:27;23.20;34.20
3868;DHT22;1949;48.152;11.528;2023-10-13T00:17:03;23.20;34.20
3868;DHT22;1949;48.152;11.528;2023-10-13T00:19:35;23.20;34.20
3868;DHT22;1949;48.152;11.528;2023-10-13T00:22:08;23.20;34.30
3868;DHT22;1949;48.152;11.528;2023-10-13T00:24:39;23.20;34.80
3868;DHT22;1949;48.152;11.528;2023-10-13T00:27:21;23.20;34.20
3868;DHT22;1949;48.152;11.528;2023-10-13T00:29:58;23.20;34.30
3868;DHT22;1949;48.152;11.528;2023-10-13T00:32:48;23.20;34.30
3868;DHT22;1949;48.152;11.528;2023-10-13T00:35:20;23.20;34.20
3868;DHT22;1949;48.152;11.528;2023-10-13T00:37:58;23.20;34.20
3868;DHT22;1949;48.152;11.528;2023-10-13T00:40:30;23.20;34.20
3868;DHT22;1949;48.152;11.528;2023-10-13T00:42:57;23.20;34.20
3868;DHT22;1949;48.152;11.528;2023-10-13T00:45:43;23.10;34.20
3868;DHT22;1949;48.152;11.528;2023-10-13T00:48:10;23.10;34.20
3868;DHT22;1949;48.152;11.528;2023-10-13T00:50:37;23.10;34.30
3868;DHT22;1949;48.152;11.528;2023-10-13T00:53:04;23.20;34.30
3868;DHT22;1949;48.152;11.528;2023-10-13T00:55:30;23.10;34.20
3868;DHT22;1949;48.152;11.528;2023-10-13T00:58:00;23.10;34.20
3868;DHT22;1949;48.152;11.528;2023-10-13T01:00:32;23.10;34.20
3868;DHT22;1949;48.152;11.528;2023-10-13T01:02:58;23.10;34.20
3868;DHT22;1949;48.152;11.528;2023-10-13T01:05:33;23.10;34.20
3868;DHT22;1949;48.152;11.528;2023-10-13T01:08:02;23.10;34.20
3868;DHT22;1949;48.152;11.528;2023-10-13T01:10:29;23.10;34.20
3868;DHT22;1949;48.152;11.528;2023-10-13T01:12:58;23.10;34.20
3868;DHT22;1949;48.152;11.528;2023-10-13T01:15:28;23.10;34.10
3868;DHT22;1949;48.152;11.528;2023-10-13T01:18:14;23.10;34.20
3868;DHT22;1949;48.152;11.528;2023-10-13T01:20:42;23.10;34.10
3868;DHT22;1949;48.152;11.528;2023-10-13T01:23:14;23.10;34.10
3868;DHT22;1949;48.152;11.528;2023-10-13T01:25:49;23.10;34.10
3868;DHT22;1949;48.152;11.528;2023-10-13T01:28:15;23.10;34.20
3868;DHT22;1949;48.152;11.528;2023-10-13T01:30:45;23.10;34.20
3868;DHT22;1949;48.152;11.528;2023-10-13T01:33:18;23.10;34.20
3868;DHT22;1949;48.152;11.528;2023-10-13T01:35:55;23.10;34.20
3868;DHT22;1949;48.152;11.528;2023-10-13T01:38:23;23.10;34.20
3868;DHT22;1949;48.152;11.528;2023-10-13T01:40:54;23.10;34.20
3868;DHT22;1949;48.152;11.528;2023-10-13T01:43:22;23.10;34.30
3868;DHT22;1949;48.152;11.528;2023-10-13T01:45:49;23.10;34.20
3868;DHT22;1949;48.152;11.528;2023-10-13T01:48:16;23.10;34.30
3868;DHT22;1949;48.152;11.528;2023-10-13T01:50:46;23.10;34.40
3868;DHT22;1949;48.152;11.528;2023-10-13T01:53:14;23.20;34.50
3868;DHT22;1949;48.152;11.528;2023-10-13T01:55:43;23.20;34.50
3868;DHT22;1949;48.152;11.528;2023-10-13T01:58:13;23.20;34.40
3868;DHT22;1949;48.152;11.528;2023-10-13T02:00:49;23.20;34.50
3868;DHT22;1949;48.152;11.528;2023-10-13T02:03:15;23.20;34.50
3868;DHT22;1949;48.152;11.528;2023-10-13T02:05:45;23.30;34.50
3868;DHT22;1949;48.152;11.528;2023-10-13T02:08:19;23.30;34.60
3868;DHT22;1949;48.152;11.528;2023-10-13T02:10:55;23.30;34.70
3868;DHT22;1949;48.152;11.528;2023-10-13T02:13:23;23.20;34.60
3868;DHT22;1949;48.152;11.528;2023-10-13T02:15:54;23.30;34.70
3868;DHT22;1949;48.152;11.528;2023-10-13T02:18:27;23.30;34.70
3868;DHT22;1949;48.152;11.528;2023-10-13T02:20:56;23.20;34.60
3868;DHT22;1949;48.152;11.528;2023-10-13T02:23:30;23.30;34.60
3868;DHT22;1949;48.152;11.528;2023-10-13T02:26:05;23.20;34.60
3868;DHT22;1949;48.152;11.528;2023-10-13T02:28:38;23.20;34.50
3868;DHT22;1949;48.152;11.528;2023-10-13T02:31:04;23.20;34.60
3868;DHT22;1949;48.152;11.528;2023-10-13T02:33:32;23.20;34.70
3868;DHT22;1949;48.152;11.528;2023-10-13T02:36:04;23.20;34.70
3868;DHT22;1949;48.152;11.528;2023-10-13T02:38:34;23.20;34.80
3868;DHT22;1949;48.152;11.528;2023-10-13T02:41:17;23.10;34.80
3868;DHT22;1949;48.152;11.528;2023-10-13T02:44:06;23.10;34.90
3868;DHT22;1949;48.152;11.528;2023-10-13T02:46:34;23.10;34.90
3868;DHT22;1949;48.152;11.528;2023-10-13T02:49:05;23.10;34.80
3868;DHT22;1949;48.152;11.528;2023-10-13T02:51:39;23.10;34.80
3868;DHT22;1949;48.152;11.528;2023-10-13T02:54:08;23.10;34.80
3868;DHT22;1949;48.152;11.528;2023-10-13T02:56:41;23.00;34.80
3868;DHT22;1949;48.152;11.528;2023-10-13T02:59:15;23.00;34.90
3868;DHT22;1949;48.152;11.528;2023-10-13T03:01:41;23.00;34.70
3868;DHT22;1949;48.152;11.528;2023-10-13T03:04:07;22.90;34.60
3868;DHT22;1949;48.152;11.528;2023-10-13T03:06:35;22.90;34.70
3868;DHT22;1949;48.152;11.528;2023-10-13T03:09:03;22.80;34.70
3868;DHT22;1949;48.152;11.528;2023-10-13T03:11:45;22.70;34.80
3868;DHT22;1949;48.152;11.528;2023-10-13T03:14:23;22.70;34.90
3868;DHT22;1949;48.152;11.528;2023-10-13T03:16:54;22.60;34.80
3868;DHT22;1949;48.152;11.528;2023-10-13T03:19:24;22.60;35.60
3868;DHT22;1949;48.152;11.528;2023-10-13T03:21:59;22.50;35.00
3868;DHT22;1949;48.152;11.528;2023-10-13T03:24:35;22.40;34.90
3868;DHT22;1949;48.152;11.528;2023-10-13T03:27:01;22.30;34.90
3868;DHT22;1949;48.152;11.528;2023-10-13T03:29:36;22.20;35.10
3868;DHT22;1949;48.152;11.528;2023-10-13T03:32:03;22.20;35.20
3868;DHT22;1949;48.152;11.528;2023-10-13T03:34:33;22.10;35.20
3868;DHT22;1949;48.152;11.528;2023-10-13T03:37:00;22.10;35.30
3868;DHT22;1949;48.152;11.528;2023-10-13T03:39:36;22.10;35.40
3868;DHT22;1949;48.152;11.528;2023-10-13T03:42:02;22.10;35.30
3868;DHT22;1949;48.152;11.528;2023-10-13T03:44:31;22.10;35.30
3868;DHT22;1949;48.152;11.528;2023-10-13T03:46:57;22.10;35.30
3868;DHT22;1949;48.152;11.528;2023-10-13T03:49:26;22.10;35.20
3868;DHT22;1949;48.152;11.528;2023-10-13T03:51:54;22.10;35.20
3868;DHT22;1949;48.152;11.528;2023-10-13T03:54:23;22.00;35.20
3868;DHT22;1949;48.152;11.528;2023-10-13T03:56:48;22.00;35.30
3868;DHT22;1949;48.152;11.528;2023-10-13T03:59:17;22.00;35.30
3868;DHT22;1949;48.152;11.528;2023-10-13T04:01:52;22.00;35.20
3868;DHT22;1949;48.152;11.528;2023-10-13T04:04:18;22.00;35.10
3868;DHT22;1949;48.152;11.528;2023-10-13T04:07:01;22.00;35.10
3868;DHT22;1949;48.152;11.528;2023-10-13T04:09:36;22.00;35.10
3868;DHT22;1949;48.152;11.528;2023-10-13T04:12:04;22.00;35.20
3868;DHT22;1949;48.152;11.528;2023-10-13T04:14:40;21.90;35.10
3868;DHT22;1949;48.152;11.528;2023-10-13T04:17:25;21.90;35.20
3868;DHT22;1949;48.152;11.528;2023-10-13T04:19:57;21.90;35.10
3868;DHT22;1949;48.152;11.528;2023-10-13T04:22:39;21.90;35.20
3868;DHT22;1949;48.152;11.528;2023-10-13T04:25:18;21.90;35.20
3868;DHT22;1949;48.152;11.528;2023-10-13T04:28:06;21.80;35.00
3868;DHT22;1949;48.152;11.528;2023-10-13T04:30:42;21.80;35.20
3868;DHT22;1949;48.152;11.528;2023-10-13T04:33:30;21.70;35.20
3868;DHT22;1949;48.152;11.528;2023-10-13T04:36:15;21.70;35.20
3868;DHT22;1949;48.152;11.528;2023-10-13T04:38:57;21.70;35.30
3868;DHT22;1949;48.152;11.528;2023-10-13T04:41:27;21.60;35.40
3868;DHT22;1949;48.152;11.528;2023-10-13T04:44:17;21.60;35.40
3868;DHT22;1949;48.152;11.528;2023-10-13T04:47:01;21.60;35.50
3868;DHT22;1949;48.152;11.528;2023-10-13T04:49:30;21.60;35.40
3868;DHT22;1949;48.152;11.528;2023-10-13T04:52:15;21.60;35.50
3868;DHT22;1949;48.152;11.528;2023-10-13T04:55:00;21.60;35.60
3868;DHT22;1949;48.152;11.528;2023-10-13T04:57:35;21.60;35.50
3868;DHT22;1949;48.152;11.528;2023-10-13T05:00:18;21.60;35.40
3868;DHT22;1949;48.152;11.528;2023-10-13T05:02:47;21.60;35.30
3868;DHT22;1949;48.152;11.528;2023-10-13T05:05:25;21.60;35.30
3868;DHT22;1949;48.152;11.528;2023-10-13T05:07:52;21.60;35.30
3868;DHT22;1949;48.152;11.528;2023-10-13T05:10:37;21.60;35.20
3868;DHT22;1949;48.152;11.528;2023-10-13T05:13:21;21.50;35.20
3868;DHT22;1949;48.152;11.528;2023-10-13T05:16:06;21.50;35.10
3868;DHT22;1949;48.152;11.528;2023-10-13T05:18:50;21.40;35.00
3868;DHT22;1949;48.152;11.528;2023-10-13T05:21:54;21.40;35.10
3868;DHT22;1949;48.152;11.528;2023-10-13T05:24:39;21.40;35.10
3868;DHT22;1949;48.152;11.528;2023-10-13T05:27:23;21.40;35.10
3868;DHT22;1949;48.152;11.528;2023-10-13T05:30:07;21.30;35.10
3868;DHT22;1949;48.152;11.528;2023-10-13T05:32:52;21.30;35.20
3868;DHT22;1949;48.152;11.528;2023-10-13T05:35:37;21.30;35.10
3868;DHT22;1949;48.152;11.528;2023-10-13T05:38:21;21.30;35.10
3868;DHT22;1949;48.152;11.528;2023-10-13T05:41:10;21.30;35.10
3868;DHT22;1949;48.152;11.528;2023-10-13T05:43:54;21.30;35.00
3868;DHT22;1949;48.152;11.528;2023-10-13T05:46:39;21.20;35.00
3868;DHT22;1949;48.152;11.528;2023-10-13T05:49:08;21.10;35.00
3868;DHT22;1949;48.152;11.528;2023-10-13T05:51:34;21.10;35.10
3868;DHT22;1949;48.152;11.528;2023-10-13T05:54:18;21.10;35.20
3868;DHT22;1949;48.152;11.528;2023-10-13T05:56:45;21.10;35.20
3868;DHT22;1949;48.152;11.528;2023-10-13T05:59:32;21.10;35.20
3868;DHT22;1949;48.152;11.528;2023-10-13T06:02:19;21.00;35.10
3868;DHT22;1949;48.152;11.528;2023-10-13T06:05:04;21.00;35.20
3868;DHT22;1949;48.152;11.528;2023-10-13T06:07:49;21.00;35.30
3868;DHT22;1949;48.152;11.528;2023-10-13T06:10:33;21.00;35.30
3868;DHT22;1949;48.152;11.528;2023-10-13T06:13:18;20.90;35.10
3868;DHT22;1949;48.152;11.528;2023-10-13T06:16:14;20.90;35.10
3868;DHT22;1949;48.152;11.528;2023-10-13T06:18:59;20.90;35.20
3868;DHT22;1949;48.152;11.528;2023-10-13T06:21:44;20.90;35.20
3868;DHT22;1949;48.152;11.528;2023-10-13T06:24:29;20.90;35.20
3868;DHT22;1949;48.152;11.528;2023-10-13T06:27:20;20.90;35.20
3868;DHT22;1949;48.152;11.528;2023-10-13T06:30:05;20.90;35.20
3868;DHT22;1949;48.152;11.528;2023-10-13T06:32:31;20.90;35.20
3868;DHT22;1949;48.152;11.528;2023-10-13T06:34:58;20.90;35.20
3868;DHT22;1949;48.152;11.528;2023-10-13T06:37:24;20.90;35.20
3868;DHT22;1949;48.152;11.528;2023-10-13T06:39:59;20.90;35.20
3868;DHT22;1949;48.152;11.528;2023-10-13T06:42:32;20.90;35.20
3868;DHT22;1949;48.152;11.528;2023-10-13T06:45:01;21.00;35.30
3868;DHT22;1949;48.152;11.528;2023-10-13T06:47:47;21.00;35.30
3868;DHT22;1949;48.152;11.528;2023-10-13T06:50:18;21.10;35.40
3868;DHT22;1949;48.152;11.528;2023-10-13T06:52:51;21.10;35.40
3868;DHT22;1949;48.152;11.528;2023-10-13T06:55:20;21.10;35.20
3868;DHT22;1949;48.152;11.528;2023-10-13T06:57:57;21.20;35.30
3868;DHT22;1949;48.152;11.528;2023-10-13T07:00:26;21.20;35.30
3868;DHT22;1949;48.152;11.528;2023-10-13T07:02:55;21.30;35.30
3868;DHT22;1949;48.152;11.528;2023-10-13T07:05:38;21.30;35.30
3868;DHT22;1949;48.152;11.528;2023-10-13T07:08:05;21.30;35.10
3868;DHT22;1949;48.152;11.528;2023-10-13T07:10:32;21.30;35.10
3868;DHT22;1949;48.152;11.528;2023-10-13T07:13:11;21.40;35.20
3868;DHT22;1949;48.152;11.528;2023-10-13T07:15:42;21.50;35.30
3868;DHT22;1949;48.152;11.528;2023-10-13T07:18:14;21.50;35.20
3868;DHT22;1949;48.152;11.528;2023-10-13T07:20:42;21.60;35.20
3868;DHT22;1949;48.152;11.528;2023-10-13T07:23:14;21.60;35.00
3868;DHT22;1949;48.152;11.528;2023-10-13T07:25:54;21.60;35.20
3868;DHT22;1949;48.152;11.528;2023-10-13T07:28:21;21.70;35.20
3868;DHT22;1949;48.152;11.528;2023-10-13T07:30:47;21.80;35.10
3868;DHT22;1949;48.152;11.528;2023-10-13T07:33:19;21.80;35.10
3868;DHT22;1949;48.152;11.528;2023-10-13T07:36:05;21.80;35.00
3868;DHT22;1949;48.152;11.528;2023-10-13T07:38:55;21.90;35.00
3868;DHT22;1949;48.152;11.528;2023-10-13T07:41:39;21.90;34.90
3868;DHT22;1949;48.152;11.528;2023-10-13T07:44:07;22.00;34.90
3868;DHT22;1949;48.152;11.528;2023-10-13T07:46:33;22.00;34.90
3868;DHT22;1949;48.152;11.528;2023-10-13T07:49:00;22.10;34.90
3868;DHT22;1949;48.152;11.528;2023-10-13T07:51:35;22.10;34.70
3868;DHT22;1949;48.152;11.528;2023-10-13T07:54:13;22.10;34.70
3868;DHT22;1949;48.152;11.528;2023-10-13T07:56:50;22.10;34.70
3868;DHT22;1949;48.152;11.528;2023-10-13T07:59:16;22.20;34.70
3868;DHT22;1949;48.152;11.528;2023-10-13T08:01:42;22.20;34.60
3868;DHT22;1949;48.152;11.528;2023-10-13T08:04:11;22.30;34.80
3868;DHT22;1949;48.152;11.528;2023-10-13T08:06:40;22.30;34.60
3868;DHT22;1949;48.152;11.528;2023-10-13T08:09:07;22.30;35.20
3868;DHT22;1949;48.152;11.528;2023-10-13T08:11:36;22.40;34.60
3868;DHT22;1949;48.152;11.528;2023-10-13T08:14:04;22.40;34.40
3868;DHT22;1949;48.152;11.528;2023-10-13T08:16:42;22.50;34.50
3868;DHT22;1949;48.152;11.528;2023-10-13T08:19:22;22.50;34.50
3868;DHT22;1949;48.152;11.528;2023-10-13T08:21:58;22.50;34.40
3868;DHT22;1949;48.152;11.528;2023-10-13T08:24:47;22.60;34.50
3868;DHT22;1949;48.152;11.528;2023-10-13T08:27:19;22.60;34.30
3868;DHT22;1949;48.152;11.528;2023-10-13T08:30:00;22.60;34.30
3868;DHT22;1949;48.152;11.528;2023-10-13T08:32:46;22.70;34.30
3868;DHT22;1949;48.152;11.528;2023-10-13T08:35:26;22.70;34.00
3868;DHT22;1949;48.152;11.528;2023-10-13T08:38:01;22.80;34.10
3868;DHT22;1949;48.152;11.528;2023-10-13T08:40:30;22.90;34.00
3868;DHT22;1949;48.152;11.528;2023-10-13T08:43:12;22.90;33.90
3868;DHT22;1949;48.152;11.528;2023-10-13T08:45:40;23.00;33.90
3868;DHT22;1949;48.152;11.528;2023-10-13T08:48:07;23.00;33.90
3868;DHT22;1949;48.152;11.528;2023-10-13T08:50:45;23.10;34.00
3868;DHT22;1949;48.152;11.528;2023-10-13T08:53:24;23.10;33.90
3868;DHT22;1949;48.152;11.528;2023-10-13T08:58:37;23.30;33.80
3868;DHT22;1949;48.152;11.528;2023-10-13T09:01:31;23.30;33.80
3868;DHT22;1949;48.152;11.528;2023-10-13T09:04:15;23.40;33.70
3868;DHT22;1949;48.152;11.528;2023-10-13T09:06:54;23.50;33.70
3868;DHT22;1949;48.152;11.528;2023-10-13T09:12:11;23.50;33.40
3868;DHT22;1949;48.152;11.528;2023-10-13T09:14:38;23.50;33.20
3868;DHT22;1949;48.152;11.528;2023-10-13T09:17:09;23.60;33.30
3868;DHT22;1949;48.152;11.528;2023-10-13T09:22:27;23.60;32.90
3868;DHT22;1949;48.152;11.528;2023-10-13T09:24:55;23.70;33.00
3868;DHT22;1949;48.152;11.528;2023-10-13T09:27:25;23.70;32.80
3868;DHT22;1949;48.152;11.528;2023-10-13T09:30:03;23.70;32.70
3868;DHT22;1949;48.152;11.528;2023-10-13T09:33:09;23.80;32.70
3868;DHT22;1949;48.152;11.528;2023-10-13T09:35:35;23.90;32.90
3868;DHT22;1949;48.152;11.528;2023-10-13T09:38:03;23.90;32.60
3868;DHT22;1949;48.152;11.528;2023-10-13T09:40:30;24.00;32.60
3868;DHT22;1949;48.152;11.528;2023-10-13T09:43:02;24.00;32.50
3868;DHT22;1949;48.152;11.528;2023-10-13T09:45:35;24.10;32.40
3868;DHT22;1949;48.152;11.528;2023-10-13T09:48:22;24.10;32.30
3868;DHT22;1949;48.152;11.528;2023-10-13T09:50:53;24.20;32.30
3868;DHT22;1949;48.152;11.528;2023-10-13T09:53:22;24.20;32.40
3868;DHT22;1949;48.152;11.528;2023-10-13T09:56:18;24.20;32.10
3868;DHT22;1949;48.152;11.528;2023-10-13T09:59:06;24.30;32.30
3868;DHT22;1949;48.152;11.528;2023-10-13T10:01:43;24.30;32.20
3868;DHT22;1949;48.152;11.528;2023-10-13T10:04:23;24.30;32.00
3868;DHT22;1949;48.152;11.528;2023-10-13T10:06:54;24.30;32.10
3868;DHT22;1949;48.152;11.528;2023-10-13T10:17:43;24.50;31.50
3868;DHT22;1949;48.152;11.528;2023-10-13T10:20:09;24.60;31.40
3868;DHT22;1949;48.152;11.528;2023-10-13T10:23:01;24.60;31.20
3868;DHT22;1949;48.152;11.528;2023-10-13T10:25:32;24.60;31.00
3868;DHT22;1949;48.152;11.528;2023-10-13T10:28:02;24.70;30.90
3868;DHT22;1949;48.152;11.528;2023-10-13T10:30:37;24.70;30.80
3868;DHT22;1949;48.152;11.528;2023-10-13T10:33:10;24.70;30.60
3868;DHT22;1949;48.152;11.528;2023-10-13T10:35:43;24.80;31.10
3868;DHT22;1949;48.152;11.528;2023-10-13T10:38:12;24.90;31.10
3868;DHT22;1949;48.152;11.528;2023-10-13T10:43:37;24.90;30.60
3868;DHT22;1949;48.152;11.528;2023-10-13T10:46:16;24.90;30.00
3868;DHT22;1949;48.152;11.528;2023-10-13T10:48:45;24.90;30.00
3868;DHT22;1949;48.152;11.528;2023-10-13T10:51:12;25.00;30.00
3868;DHT22;1949;48.152;11.528;2023-10-13T10:54:02;25.00;29.90
3868;DHT22;1949;48.152;11.528;2023-10-13T10:56:37;25.00;29.80
3868;DHT22;1949;48.152;11.528;2023-10-13T10:59:08;25.10;29.70
3868;DHT22;1949;48.152;11.528;2023-10-13T11:01:50;25.10;29.60
3868;DHT22;1949;48.152;11.528;2023-10-13T11:04:17;25.10;29.60
3868;DHT22;1949;48.152;11.528;2023-10-13T11:06:56;25.20;29.50
3868;DHT22;1949;48.152;11.528;2023-10-13T11:09:28;25.20;29.30
3868;DHT22;1949;48.152;11.528;2023-10-13T11:15:10;25.40;29.40
3868;DHT22;1949;48.152;11.528;2023-10-13T11:17:51;25.50;29.40
3868;DHT22;1949;48.152;11.528;2023-10-13T11:20:22;25.60;29.10
3868;DHT22;1949;48.152;11.528;2023-10-13T11:22:59;25.60;29.00
3868;DHT22;1949;48.152;11.528;2023-10-13T11:25:30;25.70;29.30
3868;DHT22;1949;48.152;11.528;2023-10-13T11:28:11;25.80;29.20
3868;DHT22;1949;48.152;11.528;2023-10-13T11:30:43;25.90;29.10
3868;DHT22;1949;48.152;11.528;2023-10-13T11:33:15;26.00;28.90
3868;DHT22;1949;48.152;11.528;2023-10-13T11:35:48;26.00;29.20
3868;DHT22;1949;48.152;11.528;2023-10-13T11:38:23;26.10;29.20
3868;DHT22;1949;48.152;11.528;2023-10-13T11:41:03;26.20;29.00
3868;DHT22;1949;48.152;11.528;2023-10-13T11:46:10;26.40;29.10
3868;DHT22;1949;48.152;11.528;2023-10-13T11:48:39;26.40;28.60
3868;DHT22;1949;48.152;11.528;2023-10-13T11:51:13;26.50;28.40
3868;DHT22;1949;48.152;11.528;2023-10-13T11:53:52;26.60;28.30
3868;DHT22;1949;48.152;11.528;2023-10-13T11:56:19;26.70;28.20
3868;DHT22;1949;48.152;11.528;2023-10-13T11:58:48;26.80;28.30
3868;DHT22;1949;48.152;11.528;2023-10-13T12:01:14;26.90;28.20
3868;DHT22;1949;48.152;11.528;2023-10-13T12:06:25;27.10;27.90
3868;DHT22;1949;48.152;11.528;2023-10-13T12:09:01;27.20;28.10
3868;DHT22;1949;48.152;11.528;2023-10-13T12:11:46;27.30;27.70
3868;DHT22;1949;48.152;11.528;2023-10-13T12:14:14;27.40;27.80
3868;DHT22;1949;48.152;11.528;2023-10-13T12:16:46;27.40;27.60
3868;DHT22;1949;48.152;11.528;2023-10-13T12:19:20;27.50;27.40
3868;DHT22;1949;48.152;11.528;2023-10-13T12:21:55;27.60;27.70
3868;DHT22;1949;48.152;11.528;2023-10-13T12:24:22;27.70;27.20
3868;DHT22;1949;48.152;11.528;2023-10-13T12:27:08;27.80;27.20
3868;DHT22;1949;48.152;11.528;2023-10-13T12:29:50;27.90;27.20
3868;DHT22;1949;48.152;11.528;2023-10-13T12:32:18;28.00;27.50
3868;DHT22;1949;48.152;11.528;2023-10-13T12:34:52;28.10;27.00
3868;DHT22;1949;48.152;11.528;2023-10-13T12:37:31;28.10;26.80
3868;DHT22;1949;48.152;11.528;2023-10-13T12:40:15;28.30;26.80
3868;DHT22;1949;48.152;11.528;2023-10-13T12:43:00;28.40;26.70
3868;DHT22;1949;48.152;11.528;2023-10-13T12:45:45;28.40;26.90
3868;DHT22;1949;48.152;11.528;2023-10-13T12:48:31;28.60;26.50
3868;DHT22;1949;48.152;11.528;2023-10-13T12:51:29;28.70;26.30
3868;DHT22;1949;48.152;11.528;2023-10-13T12:53:58;28.70;26.50
3868;DHT22;1949;48.152;11.528;2023-10-13T12:56:40;28.80;26.70
3868;DHT22;1949;48.152;11.528;2023-10-13T12:59:09;28.80;26.20
3868;DHT22;1949;48.152;11.528;2023-10-13T13:01:40;28.90;26.40
3868;DHT22;1949;48.152;11.528;2023-10-13T13:04:10;29.00;26.30
3868;DHT22;1949;48.152;11.528;2023-10-13T13:06:51;29.10;26.20
3868;DHT22;1949;48.152;11.528;2023-10-13T13:09:19;29.20;26.10
3868;DHT22;1949;48.152;11.528;2023-10-13T13:11:54;29.30;26.20
3868;DHT22;1949;48.152;11.528;2023-10-13T13:14:26;29.30;25.90
3868;DHT22;1949;48.152;11.528;2023-10-13T13:16:57;29.40;26.00
3868;DHT22;1949;48.152;11.528;2023-10-13T13:19:36;29.60;25.80
3868;DHT22;1949;48.152;11.528;2023-10-13T13:22:05;29.70;25.60
3868;DHT22;1949;48.152;11.528;2023-10-13T13:24:42;29.80;25.60
3868;DHT22;1949;48.152;11.528;2023-10-13T13:27:13;29.90;25.60
3868;DHT22;1949;48.152;11.528;2023-10-13T13:29:43;30.00;25.30
3868;DHT22;1949;48.152;11.528;2023-10-13T13:32:09;30.10;25.00
3868;DHT22;1949;48.152;11.528;2023-10-13T13:34:53;30.20;24.90
3868;DHT22;1949;48.152;11.528;2023-10-13T13:37:31;30.30;24.70
3868;DHT22;1949;48.152;11.528;2023-10-13T13:39:57;30.30;24.70
3868;DHT22;1949;48.152;11.528;2023-10-13T13:42:43;30.40;25.00
3868;DHT22;1949;48.152;11.528;2023-10-13T13:45:16;30.50;24.60
3868;DHT22;1949;48.152;11.528;2023-10-13T13:47:53;30.60;25.00
3868;DHT22;1949;48.152;11.528;2023-10-13T13:50:26;30.60;24.20
3868;DHT22;1949;48.152;11.528;2023-10-13T13:52:56;30.60;24.10
3868;DHT22;1949;48.152;11.528;2023-10-13T13:55:26;30.60;24.50
3868;DHT22;1949;48.152;11.528;2023-10-13T13:57:57;30.60;24.30
3868;DHT22;1949;48.152;11.528;2023-10-13T14:00:24;30.70;24.70
3868;DHT22;1949;48.152;11.528;2023-10-13T14:03:11;30.70;24.00
3868;DHT22;1949;48.152;11.528;2023-10-13T14:06:00;30.70;24.30
3868;DHT22;1949;48.152;11.528;2023-10-13T14:08:26;30.80;23.90
3868;DHT22;1949;48.152;11.528;2023-10-13T14:10:55;30.90;23.80
3868;DHT22;1949;48.152;11.528;2023-10-13T14:13:46;30.90;24.00
3868;DHT22;1949;48.152;11.528;2023-10-13T14:16:19;31.00;24.10
3868;DHT22;1949;48.152;11.528;2023-10-13T14:18:47;31.10;24.10
3868;DHT22;1949;48.152;11.528;2023-10-13T14:21:14;31.10;23.80
3868;DHT22;1949;48.152;11.528;2023-10-13T14:23:46;31.20;24.00
3868;DHT22;1949;48.152;11.528;2023-10-13T14:26:16;31.40;24.10
3868;DHT22;1949;48.152;11.528;2023-10-13T14:28:46;31.50;24.10
3868;DHT22;1949;48.152;11.528;2023-10-13T14:31:31;31.70;24.00
3868;DHT22;1949;48.152;11.528;2023-10-13T14:33:57;31.80;23.70
3868;DHT22;1949;48.152;11.528;2023-10-13T14:36:24;31.90;23.30
3868;DHT22;1949;48.152;11.528;2023-10-13T14:38:54;32.00;23.20
3868;DHT22;1949;48.152;11.528;2023-10-13T14:41:20;32.10;23.20
3868;DHT22;1949;48.152;11.528;2023-10-13T14:43:46;32.10;23.50
3868;DHT22;1949;48.152;11.528;2023-10-13T14:46:19;32.10;23.00
3868;DHT22;1949;48.152;11.528;2023-10-13T14:48:57;32.00;23.20
3868;DHT22;1949;48.152;11.528;2023-10-13T14:51:23;31.80;23.40
3868;DHT22;1949;48.152;11.528;2023-10-13T14:53:51;31.60;23.50
3868;DHT22;1949;48.152;11.528;2023-10-13T14:56:22;31.40;23.20
3868;DHT22;1949;48.152;11.528;2023-10-13T14:58:51;31.20;23.10
3868;DHT22;1949;48.152;11.528;2023-10-13T15:01:19;31.00;23.30
3868;DHT22;1949;48.152;11.528;2023-10-13T15:03:48;30.80;23.20
3868;DHT22;1949;48.152;11.528;2023-10-13T15:06:21;30.60;23.20
3868;DHT22;1949;48.152;11.528;2023-10-13T15:08:51;30.40;23.60
3868;DHT22;1949;48.152;11.528;2023-10-13T15:11:19;30.30;23.70
3868;DHT22;1949;48.152;11.528;2023-10-13T15:13:45;30.10;23.80
3868;DHT22;1949;48.152;11.528;2023-10-13T15:18:44;29.90;23.90
3868;DHT22;1949;48.152;11.528;2023-10-13T15:21:11;29.70;24.10
3868;DHT22;1949;48.152;11.528;2023-10-13T15:23:38;29.60;23.80
3868;DHT22;1949;48.152;11.528;2023-10-13T15:26:10;29.50;24.10
3868;DHT22;1949;48.152;11.528;2023-10-13T15:28:39;29.40;23.90
3868;DHT22;1949;48.152;11.528;2023-10-13T15:31:15;29.30;24.40
3868;DHT22;1949;48.152;11.528;2023-10-13T15:33:59;29.10;24.60
3868;DHT22;1949;48.152;11.528;2023-10-13T15:36:26;29.10;24.70
3868;DHT22;1949;48.152;11.528;2023-10-13T15:38:53;29.00;24.90
3868;DHT22;1949;48.152;11.528;2023-10-13T15:41:27;28.90;25.00
3868;DHT22;1949;48.152;11.528;2023-10-13T15:43:54;28.90;24.90
3868;DHT22;1949;48.152;11.528;2023-10-13T15:46:21;28.80;24.80
3868;DHT22;1949;48.152;11.528;2023-10-13T15:48:48;28.70;25.00
3868;DHT22;1949;48.152;11.528;2023-10-13T15:51:14;28.70;25.20
3868;DHT22;1949;48.152;11.528;2023-10-13T15:53:42;28.60;25.30
3868;DHT22;1949;48.152;11.528;2023-10-13T15:56:14;28.60;25.40
3868;DHT22;1949;48.152;11.528;2023-10-13T15:58:44;28.50;25.40
3868;DHT22;1949;48.152;11.528;2023-10-13T16:01:12;28.50;25.40
3868;DHT22;1949;48.152;11.528;2023-10-13T16:03:41;28.40;25.40
3868;DHT22;1949;48.152;11.528;2023-10-13T16:06:12;28.40;25.30
3868;DHT22;1949;48.152;11.528;2023-10-13T16:08:39;28.30;25.40
3868;DHT22;1949;48.152;11.528;2023-10-13T16:11:10;28.30;25.40
3868;DHT22;1949;48.152;11.528;2023-10-13T16:13:42;28.20;25.50
3868;DHT22;1949;48.152;11.528;2023-10-13T16:16:23;28.20;25.60
3868;DHT22;1949;48.152;11.528;2023-10-13T16:18:52;28.10;25.70
3868;DHT22;1949;48.152;11.528;2023-10-13T16:21:20;28.10;25.90
3868;DHT22;1949;48.152;11.528;2023-10-13T16:23:47;28.00;26.10
3868;DHT22;1949;48.152;11.528;2023-10-13T16:26:19;28.00;26.30
3868;DHT22;1949;48.152;11.528;2023-10-13T16:28:53;27.90;26.30
3868;DHT22;1949;48.152;11.528;2023-10-13T16:31:23;27.90;26.50
3868;DHT22;1949;48.152;11.528;2023-10-13T16:33:54;27.80;26.60
3868;DHT22;1949;48.152;11.528;2023-10-13T16:36:22;27.80;26.80
3868;DHT22;1949;48.152;11.528;2023-10-13T16:38:48;27.70;26.80
3868;DHT22;1949;48.152;11.528;2023-10-13T16:41:13;27.60;26.90
3868;DHT22;1949;48.152;11.528;2023-10-13T16:43:41;27.60;27.00
3868;DHT22;1949;48.152;11.528;2023-10-13T16:46:15;27.60;27.10
3868;DHT22;1949;48.152;11.528;2023-10-13T16:48:43;27.60;27.20
3868;DHT22;1949;48.152;11.528;2023-10-13T16:51:14;27.50;27.30
3868;DHT22;1949;48.152;11.528;2023-10-13T16:53:45;27.40;27.50
3868;DHT22;1949;48.152;11.528;2023-10-13T16:56:17;27.40;27.50
3868;DHT22;1949;48.152;11.528;2023-10-13T16:58:43;27.30;27.60